Lafayette, TN

10:18 PM CDT on September 01, 2015 (GMT -0500)
KTNLAFAY2 | | Change Station
CLOSE
Current Station
Personal Weather Station
Location: Lafayette, TN
Elevation: 922 ft
Nearby Weather Stations

Elev 922 ft 36.57 °N, 86.06 °W | Updated 7 seconds ago

Clear
Clear
74.2 °F
Feels Like 75 °F
N
0.0
Wind Variable Wind from SSW
Gusts 0.0 mph

Today
High -- | Low -- °F
--% Chance of Precip.
Yesterday
High -- | Low -- °F
Precip. -- in
6:15 AM 7:12 PM
Waning Gibbous, 84% visible
Pressure 30.12 in
Visibility 10.0 miles
Clouds Clear
Heat Index 75 °F
Dew Point 67 °F
Humidity 78%
Rainfall in
Snow Depth Not available.
UV 0 out of 12
Pollen 9.90 out of 12
Air Quality Not available.
Flu Activity Not available.
METAR KGLW 020255Z AUTO 00000KT 10SM CLR 21/21 A3012 RMK AO2 T02070207
Pressure 30.12 in
Visibility 10.0 miles
Clouds Clear
Heat Index 75 °F
Dew Point 67 °F
Humidity 78%
Rainfall in
Snow Depth Not available.
UV 0 out of 12
Pollen 9.90 out of 12
Air Quality Not available.
Flu Activity Not available.
METAR KGLW 020255Z AUTO 00000KT 10SM CLR 21/21 A3012 RMK AO2 T02070207

10-Day Weather Forecast

×

Almanac

Astronomy

Sep. 01, 2015 Rise Set
Actual Time
Civil Twilight
Nautical Twilight
Astronomical Twilight
Moon
Length of Visible Light
Length of Day
Tomorrow will be .
, % of the Moon is Illuminated

Today's Extremes

State Highs State Lows

Community

WunderPhotos

Upload Photos

1,851,682 photos uploaded!

WunderBlogs® & News

Nearby

Air Quality

  Air Quality AQ Index Pollutant
Not available.

Snow Depth

Station Depth Elevation

Earthquake Activity

City Distance Mag. Time & Date
Minimum magnitude displayed is 2.5.

Coastal Water Temperatures

Place Temperature

Stations

Nearby Weather Stations

Station Location Temp. Windchill Dew Point Humidity Wind Precip. Elev Updated Type